Time;durP1;ratioP1;P1;durP2;ratioP2;P2;SDS_P1;SDS_P2;PMS_P1;PMS_P2;Temp;Humidity;BMP_temperature;BMP_pressure;BME280_temperature;BME280_humidity;BME280_pressure;Samples;Min_cycle;Max_cycle;Signal;HPM_P1;HPM_P2
2020/12/03 00:06:37;;;;;;;;;;;0.90;99.90;;;;;;21092856;28;20032;-79
2020/12/03 00:16:40;;;;;;;36.83;13.68;;;1.00;99.90;;;;;;21094067;28;19999;-80
2020/12/03 00:26:41;;;;;;;34.38;14.02;;;1.00;99.90;;;;;;21095058;28;20038;-80
2020/12/03 00:36:41;;;;;;;;;;;1.10;99.90;;;;;;21097180;28;20372;-80
2020/12/03 00:46:42;;;;;;;30.73;14.00;;;1.00;99.90;;;;;;21098150;28;19912;-80
2020/12/03 00:56:45;;;;;;;;;;;0.90;99.90;;;;;;21085439;28;20032;-80
2020/12/03 01:06:46;;;;;;;40.15;15.90;;;0.80;99.90;;;;;;21104183;28;19912;-80
2020/12/03 01:16:48;;;;;;;36.47;15.73;;;0.90;99.90;;;;;;21109313;28;20048;-81
2020/12/03 01:26:49;;;;;;;;;;;1.00;99.90;;;;;;21093038;28;20036;-81
2020/12/03 01:36:53;;;;;;;44.97;18.20;;;1.00;99.90;;;;;;21091461;28;19912;-80
2020/12/03 01:46:54;;;;;;;49.58;21.10;;;0.90;99.90;;;;;;21098491;28;20032;-79
2020/12/03 01:57:01;;;;;;;62.60;21.52;;;0.90;99.90;;;;;;21105382;28;20035;-79
2020/12/03 02:07:10;;;;;;;57.78;22.55;;;0.90;99.90;;;;;;21110391;28;20048;-79
2020/12/03 02:17:11;;;;;;;55.40;20.50;;;0.90;99.90;;;;;;21090474;28;20120;-81
2020/12/03 02:27:15;;;;;;;54.13;20.90;;;0.90;99.90;;;;;;21107234;22;20487;-72
2020/12/03 02:37:16;;;;;;;53.40;21.40;;;0.90;99.90;;;;;;21002248;28;20052;-72
2020/12/03 02:47:20;;;;;;;59.13;22.40;;;0.90;99.90;;;;;;21001655;28;20421;-72
2020/12/03 02:57:22;;;;;;;51.17;21.02;;;0.80;99.90;;;;;;21000584;28;20494;-72
2020/12/03 03:07:23;;;;;;;61.00;21.90;;;0.90;99.90;;;;;;20999978;28;20037;-72
2020/12/03 03:17:24;;;;;;;47.58;20.42;;;0.90;99.90;;;;;;20999243;28;20036;-72
2020/12/03 03:27:24;;;;;;;;;;;1.00;99.90;;;;;;20998827;28;20032;-72
2020/12/03 03:37:25;;;;;;;49.60;19.50;;;0.90;99.90;;;;;;20997297;28;19951;-72
2020/12/03 03:47:26;;;;;;;;;;;1.00;99.90;;;;;;20945800;28;20650;-72
2020/12/03 03:57:27;;;;;;;46.03;19.55;;;1.00;99.90;;;;;;20913203;28;20306;-72
2020/12/03 04:07:28;;;;;;;52.15;19.92;;;1.00;99.90;;;;;;20911549;28;20025;-72
2020/12/03 04:17:29;;;;;;;;;;;0.90;99.90;;;;;;20912033;28;20059;-72
2020/12/03 04:27:30;;;;;;;44.60;18.83;;;0.90;99.90;;;;;;20910999;28;19959;-72
2020/12/03 04:37:30;;;;;;;;;;;0.90;99.90;;;;;;20910447;28;20029;-72
2020/12/03 04:47:34;;;;;;;53.17;18.58;;;0.90;99.90;;;;;;20909315;28;19956;-72
2020/12/03 04:58:20;;;;;;;46.97;18.52;;;0.80;99.90;;;;;;20908431;28;20029;-72
2020/12/03 05:08:38;;;;;;;47.28;19.73;;;0.70;99.90;;;;;;20904467;28;20064;-73
2020/12/03 05:18:58;;;;;;;43.85;18.02;;;0.60;99.90;;;;;;20936443;28;20051;-72
2020/12/03 05:29:05;;;;;;;51.63;18.75;;;0.60;99.90;;;;;;20990241;28;20025;-72
2020/12/03 05:39:15;;;;;;;43.08;17.83;;;0.40;99.90;;;;;;20989550;28;20043;-72
2020/12/03 05:49:20;;;;;;;48.47;19.17;;;0.00;99.90;;;;;;20989246;28;20033;-71
2020/12/03 05:59:24;;;;;;;50.22;19.50;;;0.00;99.90;;;;;;20988734;28;20033;-72
2020/12/03 06:09:34;;;;;;;45.78;19.67;;;0.10;99.90;;;;;;20988553;28;20503;-72
2020/12/03 06:19:53;;;;;;;52.35;21.20;;;0.30;99.90;;;;;;20988224;28;20060;-72
2020/12/03 06:30:18;;;;;;;93.13;25.02;;;0.30;99.90;;;;;;20994508;28;20376;-72
2020/12/03 06:40:28;;;;;;;72.03;25.15;;;0.30;99.90;;;;;;21002170;28;20032;-72
2020/12/03 06:50:35;;;;;;;78.57;24.92;;;0.30;99.90;;;;;;21001461;28;20079;-71
2020/12/03 07:01:02;;;;;;;66.85;25.73;;;0.30;99.90;;;;;;20980540;28;20027;-71
2020/12/03 07:11:41;;;;;;;77.90;25.10;;;0.30;99.90;;;;;;20938372;28;20075;-71
2020/12/03 07:21:51;;;;;;;65.75;23.67;;;0.10;99.90;;;;;;20937110;28;20049;-72
2020/12/03 07:31:59;;;;;;;72.03;24.08;;;0.40;99.90;;;;;;20947087;28;20462;-71
2020/12/03 07:42:23;;;;;;;71.18;25.58;;;0.30;99.90;;;;;;20912827;28;20044;-72
2020/12/03 07:52:33;;;;;;;42.40;15.80;;;0.40;99.90;;;;;;20944949;28;20040;-75
2020/12/03 08:03:13;;;;;;;41.67;18.58;;;1.30;99.90;;;;;;20901797;28;20047;-76
2020/12/03 08:13:42;;;;;;;41.97;17.38;;;3.20;99.90;;;;;;20901598;28;20418;-71
2020/12/03 08:23:53;;;;;;;41.38;17.75;;;1.80;99.90;;;;;;20908263;28;20847;-72
2020/12/03 08:33:54;;;;;;;40.85;17.00;;;1.30;99.90;;;;;;20999831;23;20062;-81
2020/12/03 08:44:02;;;;;;;34.78;15.05;;;1.40;99.90;;;;;;20935622;28;20123;-80
2020/12/03 08:54:03;;;;;;;37.30;16.98;;;1.40;99.90;;;;;;20904235;28;20037;-82
2020/12/03 09:04:05;;;;;;;37.88;16.88;;;1.60;99.90;;;;;;20905961;28;20060;-82
2020/12/03 09:14:07;;;;;;;44.22;19.30;;;1.50;99.90;;;;;;20910765;28;20528;-82
2020/12/03 09:24:10;;;;;;;51.38;19.65;;;1.60;99.90;;;;;;20911934;28;20043;-82
2020/12/03 09:34:13;;;;;;;49.63;20.58;;;1.60;99.90;;;;;;20940417;28;20036;-82
2020/12/03 09:44:16;;;;;;;42.42;17.73;;;1.30;99.90;;;;;;20961897;28;20033;-82
2020/12/03 09:54:17;;;;;;;40.80;15.80;;;1.50;99.90;;;;;;20962653;28;20035;-81
2020/12/03 10:04:28;;;;;;;;;;;1.50;99.90;;;;;;20928757;28;20123;-82
2020/12/03 10:14:53;;;;;;;34.05;15.73;;;1.80;99.90;;;;;;20893440;28;20023;-80
2020/12/03 10:25:23;;;;;;;42.47;16.48;;;1.80;99.90;;;;;;20944528;28;20467;-79
2020/12/03 10:35:24;;;;;;;33.28;15.60;;;1.70;99.90;;;;;;20957854;28;20094;-81
2020/12/03 10:45:30;;;;;;;33.53;14.88;;;1.70;99.90;;;;;;20957998;28;20033;-80
2020/12/03 10:55:31;;;;;;;28.13;14.18;;;1.80;99.90;;;;;;20979795;28;20075;-81
2020/12/03 11:05:32;;;;;;;31.02;14.60;;;2.00;99.90;;;;;;21011658;28;20047;-83
2020/12/03 11:15:33;;;;;;;;;;;2.00;99.90;;;;;;20998381;28;20279;-82
2020/12/03 11:25:35;;;;;;;33.42;15.60;;;2.20;99.90;;;;;;20976315;28;19991;-81
2020/12/03 11:35:36;;;;;;;34.22;14.95;;;2.30;99.90;;;;;;20964696;28;20044;-81
2020/12/03 11:55:44;;;;;;;27.80;13.98;;;2.30;99.90;;;;;;20927386;28;20445;-82
2020/12/03 12:05:51;;;;;;;26.10;14.67;;;2.60;99.90;;;;;;20881157;28;20032;-82
2020/12/03 12:15:52;;;;;;;28.00;12.85;;;2.80;99.90;;;;;;20943009;28;20298;-82
2020/12/03 12:25:53;;;;;;;25.83;12.43;;;2.80;99.90;;;;;;20928851;28;20033;-81
2020/12/03 12:35:54;;;;;;;29.37;13.00;;;3.20;99.90;;;;;;20969087;28;20133;-80
2020/12/03 12:45:54;;;;;;;24.43;12.53;;;2.90;99.90;;;;;;20964553;28;20032;-81
2020/12/03 12:55:55;;;;;;;23.23;12.60;;;3.10;99.90;;;;;;20965682;28;20112;-81
2020/12/03 13:05:56;;;;;;;21.90;11.43;;;3.10;99.90;;;;;;21001267;28;20273;-81
2020/12/03 13:15:57;;;;;;;21.02;11.57;;;3.10;99.90;;;;;;20983564;28;20040;-81
2020/12/03 13:25:58;;;;;;;18.77;10.17;;;4.40;99.90;;;;;;20983351;28;20386;-81
2020/12/03 13:35:59;;;;;;;16.70;9.10;;;6.10;99.90;;;;;;21001178;28;20376;-80
2020/12/03 13:46:00;;;;;;;12.90;6.57;;;5.00;99.90;;;;;;20984333;28;20032;-83
2020/12/03 13:56:01;;;;;;;15.20;8.60;;;5.80;99.90;;;;;;21018748;28;20501;-83
2020/12/03 14:06:02;;;;;;;20.83;10.43;;;5.50;99.90;;;;;;21004994;28;20029;-83
2020/12/03 14:16:03;;;;;;;12.17;7.20;;;7.10;99.90;;;;;;21004663;28;20064;-81
2020/12/03 14:26:04;;;;;;;13.33;7.93;;;7.20;99.90;;;;;;21001561;28;20112;-83
2020/12/03 14:36:05;;;;;;;13.55;7.68;;;6.30;99.90;;;;;;21071737;23;20044;-77
2020/12/03 14:46:06;;;;;;;13.47;6.73;;;6.10;99.90;;;;;;21086602;28;20027;-76
2020/12/03 14:56:07;;;;;;;13.03;7.17;;;7.00;99.90;;;;;;21087946;28;20036;-76
2020/12/03 15:06:08;;;;;;;16.38;8.07;;;5.70;99.90;;;;;;21084797;28;20122;-75
2020/12/03 15:16:09;;;;;;;15.73;9.00;;;3.60;99.90;;;;;;21084429;28;20032;-76
2020/12/03 15:26:10;;;;;;;24.40;9.27;;;2.90;99.90;;;;;;21083201;28;20119;-75
2020/12/03 15:36:11;;;;;;;;;;;2.30;99.90;;;;;;21082852;28;20367;-75
2020/12/03 15:46:12;;;;;;;22.45;9.10;;;2.00;99.90;;;;;;21080814;28;19908;-75
2020/12/03 15:56:12;;;;;;;;;;;1.70;99.90;;;;;;21079694;28;20039;-74
2020/12/03 16:06:13;;;;;;;19.08;9.30;;;1.50;99.90;;;;;;21079352;28;20119;-74
2020/12/03 16:16:14;;;;;;;19.48;10.27;;;1.30;99.90;;;;;;21079385;28;20068;-74
2020/12/03 16:26:16;;;;;;;20.35;9.95;;;1.30;99.90;;;;;;21079053;28;20496;-75
2020/12/03 16:36:21;;;;;;;18.63;10.40;;;1.30;99.90;;;;;;21078770;28;20036;-75
2020/12/03 16:46:22;;;;;;;22.85;10.35;;;1.30;99.90;;;;;;21086253;28;20494;-75
2020/12/03 16:56:25;;;;;;;19.52;9.90;;;1.10;99.90;;;;;;21077373;28;20068;-74
2020/12/03 17:06:26;;;;;;;15.98;9.38;;;1.00;99.90;;;;;;21079126;28;20031;-75
2020/12/03 17:16:27;;;;;;;22.98;11.80;;;0.60;99.90;;;;;;21076673;28;20024;-74
2020/12/03 17:26:28;;;;;;;19.85;10.00;;;0.70;99.90;;;;;;21075012;28;20081;-75
2020/12/03 17:36:29;;;;;;;23.27;11.40;;;0.60;99.90;;;;;;21074333;28;20082;-75
2020/12/03 17:46:30;;;;;;;24.95;13.68;;;0.60;99.90;;;;;;21073047;28;20036;-75
2020/12/03 17:56:30;;;;;;;22.10;11.63;;;0.50;99.90;;;;;;21073443;28;20035;-75
2020/12/03 18:06:31;;;;;;;22.35;10.75;;;0.60;99.90;;;;;;21073371;28;20027;-74
2020/12/03 18:16:32;;;;;;;19.30;11.27;;;0.40;99.90;;;;;;21071842;28;20031;-74
2020/12/03 18:26:34;;;;;;;24.25;11.82;;;0.50;99.90;;;;;;21080503;28;20085;-75
2020/12/03 18:36:35;;;;;;;26.48;12.10;;;0.50;99.90;;;;;;21083841;28;20043;-75
2020/12/03 18:46:36;;;;;;;23.08;11.77;;;0.60;99.90;;;;;;21087479;28;20036;-75
2020/12/03 18:56:38;;;;;;;26.73;12.20;;;0.60;99.90;;;;;;21086246;28;20028;-75
2020/12/03 19:06:39;;;;;;;25.55;13.07;;;0.40;99.90;;;;;;21086109;28;20141;-74
2020/12/03 19:16:41;;;;;;;27.48;13.00;;;0.20;99.90;;;;;;21126445;28;20031;-75
2020/12/03 19:26:42;;;;;;;24.10;11.85;;;0.20;99.90;;;;;;21094406;28;20109;-74
2020/12/03 19:36:43;;;;;;;23.80;11.88;;;0.30;99.90;;;;;;21067171;28;20071;-74
2020/12/03 19:46:44;;;;;;;24.98;13.43;;;0.20;99.90;;;;;;20997897;28;20398;-75
2020/12/03 19:56:45;;;;;;;27.95;14.25;;;0.20;99.90;;;;;;20997331;28;20024;-74
2020/12/03 20:06:45;;;;;;;31.63;13.95;;;0.20;99.90;;;;;;21006269;28;20055;-74
2020/12/03 20:16:46;;;;;;;25.90;13.77;;;0.20;99.90;;;;;;20996047;28;20067;-74
2020/12/03 20:26:49;;;;;;;29.42;12.95;;;0.20;99.90;;;;;;20994742;28;20052;-74
2020/12/03 20:36:50;;;;;;;39.70;14.30;;;0.20;99.90;;;;;;21090047;22;20120;-75
2020/12/03 20:46:52;;;;;;;25.88;12.32;;;0.20;99.90;;;;;;21075683;28;20115;-74
2020/12/03 20:56:53;;;;;;;26.30;13.15;;;0.10;99.90;;;;;;21075042;28;20125;-73
2020/12/03 21:06:53;;;;;;;22.73;12.60;;;0.20;99.90;;;;;;21074513;28;20570;-73
2020/12/03 21:16:54;;;;;;;24.75;11.82;;;0.20;99.90;;;;;;21072284;28;20031;-75
2020/12/03 21:26:55;;;;;;;27.42;12.02;;;0.30;99.90;;;;;;21073705;28;20048;-73
2020/12/03 21:36:59;;;;;;;20.75;10.88;;;0.40;99.90;;;;;;21072186;28;20574;-74
2020/12/03 21:46:59;;;;;;;20.45;10.52;;;0.20;99.90;;;;;;21071996;28;20119;-74
2020/12/03 21:57:00;;;;;;;25.90;12.00;;;0.10;99.90;;;;;;21073609;28;20059;-74
2020/12/03 22:07:01;;;;;;;21.55;11.88;;;0.10;99.90;;;;;;21043379;28;20489;-74
2020/12/03 22:17:02;;;;;;;24.48;12.15;;;0.10;99.90;;;;;;20983263;28;20028;-73
2020/12/03 22:27:03;;;;;;;23.33;11.48;;;0.20;99.90;;;;;;20983635;28;20113;-74
2020/12/03 22:37:03;;;;;;;28.55;12.02;;;0.10;99.90;;;;;;20988976;28;20020;-73
2020/12/03 22:47:04;;;;;;;24.40;12.18;;;0.10;99.90;;;;;;21057073;28;20020;-74
2020/12/03 22:57:05;;;;;;;23.65;11.98;;;0.10;99.90;;;;;;21043027;28;20021;-74
2020/12/03 23:07:06;;;;;;;23.98;11.30;;;0.20;99.90;;;;;;21042539;28;20020;-75
2020/12/03 23:17:10;;;;;;;25.83;12.82;;;0.20;99.90;;;;;;21040255;28;20076;-74
2020/12/03 23:27:10;;;;;;;28.42;12.98;;;0.10;99.90;;;;;;21040699;28;20024;-74
2020/12/03 23:37:11;;;;;;;28.40;12.63;;;0.10;99.90;;;;;;21038601;28;20054;-73
2020/12/03 23:47:12;;;;;;;27.45;14.18;;;0.00;99.90;;;;;;21043174;28;20470;-73
2020/12/03 23:57:16;;;;;;;35.28;13.52;;;0.00;99.90;;;;;;21078173;28;20059;-74
